Time;durP1;ratioP1;P1;durP2;ratioP2;P2;SDS_P1;SDS_P2;PMS_P1;PMS_P2;Temp;Humidity;BMP_temperature;BMP_pressure;BME280_temperature;BME280_humidity;BME280_pressure;Samples;Min_cycle;Max_cycle;Signal;HPM_P1;HPM_P2
2021/04/21 00:01:18;;;;;;;24.60;22.20;;;6.00;36.20;;;;;;5072516;28;20464;-71
2021/04/21 00:03:44;;;;;;;24.63;22.30;;;6.00;36.10;;;;;;5072927;28;20182;-72
2021/04/21 00:06:13;;;;;;;24.90;20.20;;;6.00;36.40;;;;;;5072845;28;20348;-73
2021/04/21 00:08:39;;;;;;;20.95;19.00;;;6.00;36.60;;;;;;5072606;28;20175;-73
2021/04/21 00:11:06;;;;;;;22.10;20.10;;;5.90;36.70;;;;;;5071602;28;20731;-74
2021/04/21 00:13:32;;;;;;;24.52;22.13;;;5.90;36.80;;;;;;5072500;28;20430;-71
2021/04/21 00:15:58;;;;;;;27.63;21.92;;;5.90;37.00;;;;;;5071138;28;20179;-71
2021/04/21 00:18:26;;;;;;;22.23;19.30;;;5.90;37.70;;;;;;5073529;28;20177;-71
2021/04/21 00:20:58;;;;;;;23.13;20.95;;;5.80;37.80;;;;;;5071582;28;20207;-72
2021/04/21 00:23:24;;;;;;;25.58;18.48;;;5.80;37.70;;;;;;5072126;28;20699;-72
2021/04/21 00:25:53;;;;;;;25.02;17.88;;;5.80;37.90;;;;;;5072670;28;20203;-72
2021/04/21 00:28:22;;;;;;;22.52;20.35;;;5.80;37.80;;;;;;5072077;28;20198;-72
2021/04/21 00:30:48;;;;;;;20.30;18.23;;;5.80;37.60;;;;;;5071000;28;20207;-72
2021/04/21 00:33:17;;;;;;;23.15;18.67;;;5.80;37.90;;;;;;5072513;28;20189;-71
2021/04/21 00:35:44;;;;;;;24.25;21.85;;;5.80;37.60;;;;;;5072426;28;20241;-73
2021/04/21 00:38:13;;;;;;;21.70;18.08;;;5.80;37.30;;;;;;5072489;28;20178;-71
2021/04/21 00:40:45;;;;;;;27.73;19.77;;;5.80;37.90;;;;;;5071781;28;20199;-71
2021/04/21 00:43:20;;;;;;;20.70;18.60;;;5.70;37.70;;;;;;5070880;28;20697;-72
2021/04/21 00:45:49;;;;;;;25.98;20.75;;;5.70;38.40;;;;;;5070438;28;20203;-72
2021/04/21 00:48:33;;;;;;;24.92;20.35;;;5.70;38.60;;;;;;5072156;28;20647;-72
2021/04/21 00:51:05;;;;;;;24.10;21.50;;;5.60;38.60;;;;;;5071394;28;20215;-72
2021/04/21 00:53:42;;;;;;;22.10;19.80;;;5.60;38.60;;;;;;5072617;28;20559;-71
2021/04/21 00:56:10;;;;;;;22.10;19.83;;;5.60;38.60;;;;;;5072046;28;20232;-72
2021/04/21 00:58:43;;;;;;;23.08;20.13;;;5.50;38.50;;;;;;5071694;28;20185;-71
2021/04/21 01:01:11;;;;;;;22.90;20.60;;;5.50;38.50;;;;;;5071086;28;20749;-72
2021/04/21 01:03:37;;;;;;;25.13;22.05;;;5.40;38.40;;;;;;5071534;28;20206;-73
2021/04/21 01:06:04;;;;;;;20.60;18.45;;;5.40;38.40;;;;;;5070760;28;20173;-71
2021/04/21 01:08:34;;;;;;;21.05;18.88;;;5.40;38.50;;;;;;5071873;28;20186;-73
2021/04/21 01:11:23;;;;;;;24.73;21.88;;;5.40;38.40;;;;;;5069956;28;20216;-72
2021/04/21 01:13:54;;;;;;;24.30;19.38;;;5.40;38.40;;;;;;5070533;28;20546;-71
2021/04/21 01:16:29;;;;;;;25.20;22.50;;;5.30;38.30;;;;;;5070340;28;20178;-74
2021/04/21 01:18:58;;;;;;;25.48;22.95;;;5.30;39.00;;;;;;5070747;28;20216;-72
2021/04/21 01:21:42;;;;;;;25.85;23.02;;;5.20;39.00;;;;;;5071292;28;20217;-72
2021/04/21 01:24:22;;;;;;;23.83;21.50;;;5.20;39.20;;;;;;5071309;28;20174;-72
2021/04/21 01:26:48;;;;;;;17.73;15.93;;;5.10;39.40;;;;;;5072166;28;20292;-72
2021/04/21 01:29:52;;;;;;;43.63;18.47;;;5.10;39.80;;;;;;5069654;28;20649;-72
2021/04/21 01:32:28;;;;;;;22.65;19.40;;;5.10;39.40;;;;;;5067582;28;20225;-71
2021/04/21 01:34:55;;;;;;;24.45;19.15;;;5.10;39.50;;;;;;5071585;28;20541;-71
2021/04/21 01:37:26;;;;;;;27.38;22.60;;;5.00;39.40;;;;;;5072410;28;20174;-71
2021/04/21 01:40:00;;;;;;;25.33;22.67;;;5.00;39.80;;;;;;5071055;28;20595;-72
2021/04/21 01:42:31;;;;;;;23.35;21.05;;;4.90;40.00;;;;;;5070345;28;20703;-71
2021/04/21 01:45:00;;;;;;;26.45;23.17;;;4.80;40.40;;;;;;5072564;28;20177;-72
2021/04/21 01:47:25;;;;;;;23.02;20.98;;;4.80;40.60;;;;;;5071882;28;20181;-72
2021/04/21 01:49:54;;;;;;;24.33;22.00;;;4.80;40.80;;;;;;5070823;28;20170;-73
2021/04/21 01:52:46;;;;;;;23.55;21.25;;;4.80;40.90;;;;;;5071551;28;20202;-72
2021/04/21 01:55:21;;;;;;;28.88;23.90;;;4.80;40.70;;;;;;5071525;28;20170;-71
2021/04/21 01:57:55;;;;;;;24.13;20.80;;;4.80;40.40;;;;;;5071657;28;20579;-73
2021/04/21 02:00:34;;;;;;;22.02;19.60;;;4.90;40.60;;;;;;5070719;28;20194;-71
2021/04/21 02:03:12;;;;;;;22.05;19.58;;;4.80;41.20;;;;;;5070127;28;20593;-71
2021/04/21 02:06:15;;;;;;;22.10;19.25;;;4.80;41.20;;;;;;5070493;28;20691;-72
2021/04/21 02:08:57;;;;;;;25.23;22.58;;;4.70;41.20;;;;;;5071096;28;20169;-71
2021/04/21 02:11:29;;;;;;;23.88;21.40;;;4.70;41.50;;;;;;5071322;28;20201;-72
2021/04/21 02:14:09;;;;;;;23.60;21.30;;;4.60;41.80;;;;;;5071022;28;20675;-71
2021/04/21 02:16:46;;;;;;;25.63;20.45;;;4.60;42.00;;;;;;5072492;28;20250;-72
2021/04/21 02:19:37;;;;;;;27.73;24.90;;;4.60;41.60;;;;;;5074537;28;20643;-71
2021/04/21 02:22:28;;;;;;;26.88;23.50;;;4.50;41.60;;;;;;5075386;28;20219;-72
2021/04/21 02:25:09;;;;;;;23.88;19.77;;;4.50;41.70;;;;;;5074905;28;20185;-72
2021/04/21 02:27:56;;;;;;;22.15;19.85;;;4.50;41.60;;;;;;5074874;28;20174;-71
2021/04/21 02:30:45;;;;;;;24.27;21.20;;;4.50;41.50;;;;;;5072729;28;20543;-72
2021/04/21 02:33:38;;;;;;;24.80;22.13;;;4.50;41.60;;;;;;5074659;28;20180;-73
2021/04/21 02:36:09;;;;;;;23.27;20.73;;;4.40;41.60;;;;;;5074888;28;20588;-71
2021/04/21 02:38:36;;;;;;;24.67;21.88;;;4.40;42.00;;;;;;5073445;28;20654;-72
2021/04/21 02:41:17;;;;;;;28.30;23.77;;;4.30;42.20;;;;;;5074415;28;20460;-71
2021/04/21 02:44:01;;;;;;;26.52;23.65;;;4.30;42.10;;;;;;5074203;28;20189;-72
2021/04/21 02:46:33;;;;;;;36.75;23.58;;;4.20;42.50;;;;;;5074369;28;20230;-71
2021/04/21 02:49:17;;;;;;;25.95;23.25;;;4.20;42.50;;;;;;5073756;28;20177;-71
2021/04/21 02:52:22;;;;;;;28.17;22.02;;;4.20;42.50;;;;;;5074614;28;20209;-72
2021/04/21 02:55:08;;;;;;;30.35;22.83;;;4.10;42.40;;;;;;5073185;28;20212;-71
2021/04/21 02:57:48;;;;;;;25.00;18.10;;;4.10;42.50;;;;;;5074131;28;20213;-72
2021/04/21 03:00:22;;;;;;;25.05;22.65;;;4.20;42.50;;;;;;5073628;28;20190;-71
2021/04/21 03:03:05;;;;;;;23.52;21.15;;;4.10;42.40;;;;;;5074187;28;20202;-72
2021/04/21 03:05:34;;;;;;;33.00;24.38;;;4.00;42.90;;;;;;5073528;28;20224;-71
2021/04/21 03:08:22;;;;;;;33.35;22.52;;;4.00;43.30;;;;;;5073699;28;20249;-72
2021/04/21 03:11:14;;;;;;;27.80;22.83;;;3.90;43.60;;;;;;5073274;28;20557;-72
2021/04/21 03:13:52;;;;;;;30.77;23.73;;;3.90;43.70;;;;;;5073919;28;20190;-72
2021/04/21 03:16:20;;;;;;;27.60;24.10;;;3.80;44.20;;;;;;5073864;28;20264;-72
2021/04/21 03:18:48;;;;;;;26.88;24.25;;;3.80;44.60;;;;;;5072810;28;20452;-71
2021/04/21 03:21:19;;;;;;;27.75;24.45;;;3.80;44.50;;;;;;5073492;28;20296;-72
2021/04/21 03:23:47;;;;;;;27.05;20.77;;;3.80;44.80;;;;;;5073906;28;20571;-72
2021/04/21 03:26:14;;;;;;;22.38;19.95;;;3.80;44.60;;;;;;5073945;28;20660;-72
2021/04/21 03:28:46;;;;;;;31.45;24.35;;;3.80;44.30;;;;;;5073010;28;20165;-71
2021/04/21 03:31:13;;;;;;;29.45;24.88;;;3.80;43.90;;;;;;5072129;28;20224;-71
2021/04/21 03:33:44;;;;;;;26.73;24.00;;;3.80;44.10;;;;;;5073350;28;20636;-73
2021/04/21 03:36:14;;;;;;;29.17;23.00;;;3.80;44.40;;;;;;5073896;28;20188;-72
2021/04/21 03:38:41;;;;;;;31.27;20.20;;;3.70;44.10;;;;;;5073930;28;20640;-72
2021/04/21 03:41:06;;;;;;;22.67;20.23;;;3.70;44.40;;;;;;5072884;28;20208;-73
2021/04/21 03:43:32;;;;;;;28.23;22.90;;;3.70;44.10;;;;;;5073102;28;20647;-71
2021/04/21 03:45:59;;;;;;;37.40;23.47;;;3.60;44.40;;;;;;5073374;28;20178;-70
2021/04/21 03:48:24;;;;;;;26.83;24.05;;;3.60;44.70;;;;;;5073471;28;20449;-71
2021/04/21 03:50:54;;;;;;;26.77;22.23;;;3.50;44.80;;;;;;5072427;28;20206;-72
2021/04/21 03:53:25;;;;;;;31.85;23.77;;;3.50;45.00;;;;;;5072159;28;20731;-71
2021/04/21 03:55:55;;;;;;;23.98;21.15;;;3.50;44.80;;;;;;5073595;28;20190;-72
2021/04/21 03:58:21;;;;;;;26.10;23.42;;;3.50;45.20;;;;;;5071684;28;20182;-71
2021/04/21 04:01:01;;;;;;;30.40;23.67;;;3.40;45.20;;;;;;5072108;28;20214;-72
2021/04/21 04:03:28;;;;;;;28.75;24.83;;;3.50;45.40;;;;;;5071750;28;20547;-72
2021/04/21 04:05:57;;;;;;;26.92;23.63;;;3.40;45.40;;;;;;5073020;28;20188;-71
2021/04/21 04:08:26;;;;;;;31.98;24.98;;;3.40;45.80;;;;;;5073572;28;20181;-73
2021/04/21 04:10:53;;;;;;;25.02;21.13;;;3.40;45.70;;;;;;5072448;28;20190;-71
2021/04/21 04:13:20;;;;;;;40.25;25.17;;;3.30;45.70;;;;;;5073499;28;20181;-73
2021/04/21 04:15:48;;;;;;;31.70;25.77;;;3.30;45.70;;;;;;5071769;28;20228;-71
2021/04/21 04:18:15;;;;;;;30.48;25.60;;;3.30;45.70;;;;;;5072579;28;20669;-72
2021/04/21 04:20:42;;;;;;;33.25;25.17;;;3.30;45.60;;;;;;5070396;28;20188;-70
2021/04/21 04:23:10;;;;;;;31.23;25.90;;;3.40;46.20;;;;;;5055945;28;20273;-71
2021/04/21 04:25:44;;;;;;;33.00;25.42;;;3.40;46.50;;;;;;5053064;28;20178;-71
2021/04/21 04:28:11;;;;;;;26.92;22.80;;;3.40;46.50;;;;;;5057334;28;20655;-73
2021/04/21 04:30:38;;;;;;;26.65;23.80;;;3.40;46.10;;;;;;5072212;28;20178;-72
2021/04/21 04:33:06;;;;;;;25.58;22.83;;;3.40;45.80;;;;;;5085771;22;20710;-75
2021/04/21 04:35:32;;;;;;;25.75;23.02;;;3.40;46.00;;;;;;5070384;28;20227;-74
2021/04/21 04:38:01;;;;;;;26.55;23.70;;;3.40;46.40;;;;;;5072190;28;20176;-75
2021/04/21 04:40:27;;;;;;;28.07;23.37;;;3.50;46.90;;;;;;5071969;28;20208;-75
2021/04/21 04:42:53;;;;;;;23.08;20.50;;;3.60;46.40;;;;;;5071956;28;20625;-74
2021/04/21 04:45:21;;;;;;;31.55;22.48;;;3.70;45.40;;;;;;5071148;28;20170;-75
2021/04/21 04:47:51;;;;;;;30.83;22.40;;;3.70;45.70;;;;;;5069969;28;20181;-75
2021/04/21 04:50:22;;;;;;;23.73;21.33;;;3.70;44.90;;;;;;5072276;28;20165;-75
2021/04/21 04:52:52;;;;;;;24.83;22.30;;;3.80;44.30;;;;;;5070080;28;20202;-75
2021/04/21 04:55:19;;;;;;;27.15;22.10;;;3.80;43.50;;;;;;5071401;28;20181;-75
2021/04/21 04:57:48;;;;;;;29.25;22.30;;;3.80;43.60;;;;;;5071148;28;20249;-75
2021/04/21 05:00:16;;;;;;;28.65;23.42;;;3.70;44.10;;;;;;5071627;28;20263;-75
2021/04/21 05:02:48;;;;;;;24.65;22.02;;;3.70;44.70;;;;;;5071181;28;20251;-75
2021/04/21 05:05:16;;;;;;;28.80;25.75;;;3.80;44.80;;;;;;5070887;28;20209;-75
2021/04/21 05:07:51;;;;;;;30.20;21.55;;;4.00;44.80;;;;;;5071564;28;20185;-73
2021/04/21 05:10:28;;;;;;;30.35;24.60;;;4.00;44.30;;;;;;5069913;28;20178;-73
2021/04/21 05:12:57;;;;;;;24.75;22.15;;;4.10;43.90;;;;;;5071037;28;20208;-73
2021/04/21 05:15:32;;;;;;;32.60;25.38;;;4.10;43.50;;;;;;5069890;28;20178;-73
2021/04/21 05:18:22;;;;;;;24.08;21.58;;;4.20;43.50;;;;;;5071597;28;20250;-73
2021/04/21 05:21:25;;;;;;;27.73;24.88;;;4.40;43.80;;;;;;5071085;28;20583;-73
2021/04/21 05:24:09;;;;;;;23.67;18.80;;;5.30;44.20;;;;;;5072856;28;20189;-73
2021/04/21 05:26:41;;;;;;;30.58;22.40;;;6.60;35.00;;;;;;5066961;28;20836;-74
2021/04/21 05:29:39;;;;;;;19.03;16.83;;;7.40;31.20;;;;;;5063256;28;20642;-74
2021/04/21 05:32:29;;;;;;;23.17;19.47;;;8.30;28.00;;;;;;5067284;28;20460;-75
2021/04/21 05:35:28;;;;;;;21.37;18.67;;;8.70;26.60;;;;;;5050665;28;20783;-74
2021/04/21 05:38:21;;;;;;;24.30;18.60;;;9.00;26.70;;;;;;5050898;28;20471;-75
2021/04/21 05:41:00;;;;;;;21.90;17.00;;;9.50;24.10;;;;;;5065866;28;20484;-75
2021/04/21 05:43:57;;;;;;;22.70;19.60;;;9.60;23.90;;;;;;5051422;28;20420;-75
2021/04/21 05:47:00;;;;;;;20.83;18.47;;;10.10;22.70;;;;;;5071936;28;20431;-75
2021/04/21 05:49:50;;;;;;;24.20;20.07;;;10.70;21.70;;;;;;5076368;28;20411;-75
2021/04/21 05:52:18;;;;;;;21.93;19.70;;;11.60;19.80;;;;;;5080023;28;20427;-75
2021/04/21 05:54:58;;;;;;;20.37;18.53;;;12.40;19.00;;;;;;5080110;28;20428;-75
2021/04/21 05:57:30;;;;;;;27.83;20.03;;;13.10;17.40;;;;;;5080742;28;20404;-74
2021/04/21 06:00:39;;;;;;;18.70;17.03;;;13.90;15.90;;;;;;5077492;28;20807;-75
2021/04/21 06:03:06;;;;;;;26.47;21.00;;;14.40;14.40;;;;;;4994524;28;20897;-75
2021/04/21 06:05:31;;;;;;;24.03;20.90;;;14.80;13.80;;;;;;5058611;28;20453;-75
2021/04/21 06:08:09;;;;;;;23.43;21.20;;;15.00;13.10;;;;;;5074748;28;20457;-75
2021/04/21 06:10:35;;;;;;;21.57;19.47;;;15.10;13.20;;;;;;5074374;28;20193;-75
2021/04/21 06:13:02;;;;;;;22.67;19.97;;;15.50;12.90;;;;;;5068572;28;20534;-75
2021/04/21 06:15:38;;;;;;;23.13;20.07;;;15.80;12.50;;;;;;5054773;28;20704;-72
2021/04/21 06:18:08;;;;;;;22.23;19.97;;;15.80;11.80;;;;;;5054791;28;20630;-72
2021/04/21 06:20:40;;;;;;;28.23;23.13;;;16.20;11.20;;;;;;5052838;28;20436;-72
2021/04/21 06:23:15;;;;;;;28.60;24.20;;;16.50;10.90;;;;;;5072524;28;20436;-72
2021/04/21 06:25:44;;;;;;;23.53;21.43;;;16.90;10.60;;;;;;5073094;28;20450;-73
2021/04/21 06:28:16;;;;;;;22.80;21.00;;;17.40;10.30;;;;;;5076017;28;20458;-72
2021/04/21 06:30:43;;;;;;;23.57;21.67;;;17.90;9.50;;;;;;5074215;28;20431;-73
2021/04/21 06:33:09;;;;;;;23.93;21.60;;;18.20;8.90;;;;;;5073600;28;20508;-74
2021/04/21 06:35:36;;;;;;;25.87;23.27;;;18.50;8.10;;;;;;5072408;28;20416;-74
2021/04/21 06:38:03;;;;;;;25.90;23.20;;;18.90;7.60;;;;;;5073629;28;20411;-71
2021/04/21 06:40:30;;;;;;;27.10;24.80;;;19.00;7.20;;;;;;5073372;28;20415;-72
2021/04/21 06:42:57;;;;;;;24.90;22.80;;;19.30;7.60;;;;;;5079313;28;20979;-71
2021/04/21 06:45:28;;;;;;;25.30;23.30;;;19.60;7.30;;;;;;5070048;28;21098;-71
2021/04/21 06:47:55;;;;;;;21.77;20.17;;;19.70;7.40;;;;;;5069400;28;20428;-72
2021/04/21 06:50:27;;;;;;;21.67;19.50;;;19.70;6.70;;;;;;5069860;28;20500;-71
2021/04/21 06:52:59;;;;;;;24.67;22.27;;;19.50;7.20;;;;;;5069437;28;20971;-71
2021/04/21 06:55:24;;;;;;;24.90;23.00;;;19.60;7.30;;;;;;5069904;28;20721;-72
2021/04/21 06:57:50;;;;;;;24.53;22.50;;;19.50;7.20;;;;;;5070197;28;20779;-72
2021/04/21 07:00:18;;;;;;;22.93;21.13;;;19.70;6.50;;;;;;5069573;28;20190;-73
2021/04/21 07:02:47;;;;;;;21.80;20.07;;;19.80;6.90;;;;;;5068435;28;20241;-72
2021/04/21 07:05:35;;;;;;;24.47;22.73;;;19.90;6.50;;;;;;5070035;28;20831;-71
2021/04/21 07:08:11;;;;;;;23.30;21.60;;;19.80;6.40;;;;;;5069069;28;20440;-71
2021/04/21 07:10:51;;;;;;;26.63;24.03;;;20.20;6.20;;;;;;5070291;28;20484;-72
2021/04/21 07:13:25;;;;;;;24.93;23.13;;;20.30;6.30;;;;;;5069652;28;20956;-72
2021/04/21 07:15:55;;;;;;;24.50;22.80;;;20.50;6.20;;;;;;5068676;28;20933;-72
2021/04/21 07:18:27;;;;;;;27.03;24.70;;;20.50;6.00;;;;;;5062587;28;20597;-72
2021/04/21 07:20:55;;;;;;;25.70;23.87;;;20.80;6.00;;;;;;5069911;28;20463;-72
2021/04/21 07:23:24;;;;;;;24.00;22.13;;;20.90;5.50;;;;;;5069611;28;20498;-72
2021/04/21 07:25:51;;;;;;;27.30;24.70;;;21.00;5.10;;;;;;5070067;28;20428;-73
2021/04/21 07:28:19;;;;;;;28.13;25.93;;;21.00;4.90;;;;;;5069443;28;20417;-72
2021/04/21 07:30:45;;;;;;;25.07;23.33;;;20.60;6.40;;;;;;5068702;28;20446;-72
2021/04/21 07:33:11;;;;;;;29.17;27.03;;;20.70;6.80;;;;;;5068655;28;20455;-72
2021/04/21 07:35:37;;;;;;;28.77;26.67;;;20.50;6.40;;;;;;5067583;28;20200;-72
2021/04/21 07:38:16;;;;;;;27.50;25.53;;;20.80;5.70;;;;;;5069659;28;20538;-73
2021/04/21 07:40:42;;;;;;;28.63;26.30;;;21.10;5.20;;;;;;5065671;28;20442;-72
2021/04/21 07:43:14;;;;;;;26.70;24.77;;;20.90;5.50;;;;;;5068256;28;20452;-73
2021/04/21 07:45:42;;;;;;;26.67;24.50;;;20.80;5.20;;;;;;5059512;28;20674;-72
2021/04/21 07:48:39;;;;;;;28.50;26.13;;;20.90;5.80;;;;;;5070066;28;20502;-73
2021/04/21 07:51:19;;;;;;;27.33;25.43;;;21.20;5.00;;;;;;5082202;28;20956;-73
2021/04/21 07:53:52;;;;;;;28.17;26.27;;;21.10;5.90;;;;;;5068002;28;20467;-73
2021/04/21 07:56:20;;;;;;;28.50;26.53;;;21.20;5.50;;;;;;5067659;28;20446;-73
2021/04/21 07:58:46;;;;;;;25.27;23.67;;;21.60;5.10;;;;;;5069846;28;20416;-74
2021/04/21 08:01:12;;;;;;;30.13;27.60;;;21.30;5.40;;;;;;5068504;28;20526;-74
2021/04/21 08:03:38;;;;;;;24.17;22.30;;;21.20;4.90;;;;;;5067214;28;20428;-73
2021/04/21 08:06:04;;;;;;;23.63;22.10;;;21.20;5.30;;;;;;5068705;28;20670;-73
2021/04/21 08:08:34;;;;;;;30.70;28.27;;;21.60;5.30;;;;;;5068193;28;20776;-73
2021/04/21 08:11:01;;;;;;;29.17;25.93;;;21.60;5.20;;;;;;5066669;28;20558;-73
2021/04/21 08:13:41;;;;;;;27.60;25.70;;;21.80;4.50;;;;;;5068352;28;20443;-73
2021/04/21 08:16:39;;;;;;;27.73;25.37;;;21.80;5.20;;;;;;5066919;28;20982;-73
2021/04/21 08:19:17;;;;;;;28.80;26.63;;;21.60;5.40;;;;;;5040437;28;20912;-73
2021/04/21 08:21:43;;;;;;;28.37;26.67;;;21.50;4.20;;;;;;5071454;28;20468;-75
2021/04/21 08:24:15;;;;;;;27.17;25.37;;;21.70;4.40;;;;;;5071770;28;20462;-74
2021/04/21 08:26:45;;;;;;;30.10;27.80;;;22.00;3.90;;;;;;5072194;28;20477;-73
2021/04/21 08:29:13;;;;;;;29.80;27.90;;;22.10;4.40;;;;;;5071232;28;20420;-73
2021/04/21 08:31:42;;;;;;;29.10;27.03;;;22.20;4.50;;;;;;5072459;28;20949;-75
2021/04/21 08:34:08;;;;;;;28.87;27.10;;;22.20;4.70;;;;;;5071083;28;20481;-75
2021/04/21 08:36:34;;;;;;;30.07;28.03;;;22.50;4.70;;;;;;5071471;28;20424;-75
2021/04/21 08:39:00;;;;;;;29.53;27.57;;;22.60;3.80;;;;;;5069888;28;20182;-72
2021/04/21 08:41:28;;;;;;;30.60;28.60;;;22.10;4.40;;;;;;5071776;28;20470;-75
2021/04/21 08:43:55;;;;;;;32.00;30.00;;;;;;;;;;5073624;28;20223;-75
2021/04/21 08:46:22;;;;;;;32.43;30.43;;;20.40;5.20;;;;;;5072403;28;20474;-73
2021/04/21 08:48:47;;;;;;;29.87;28.27;;;19.40;6.70;;;;;;5071272;28;20412;-73
2021/04/21 08:51:16;;;;;;;28.53;26.53;;;;;;;;;;5073092;28;20416;-77
2021/04/21 08:53:45;;;;;;;33.40;31.10;;;18.50;7.70;;;;;;5070919;28;20188;-72
2021/04/21 08:56:16;;;;;;;30.90;28.77;;;17.90;8.60;;;;;;5073048;28;20461;-72
2021/04/21 08:58:46;;;;;;;28.43;26.63;;;17.60;9.50;;;;;;5071632;28;20428;-73
2021/04/21 09:01:13;;;;;;;30.43;28.17;;;17.40;9.50;;;;;;5071507;28;20538;-72
2021/04/21 09:03:43;;;;;;;28.90;27.20;;;17.30;10.40;;;;;;5071309;28;20432;-73
2021/04/21 09:06:09;;;;;;;31.53;29.13;;;17.30;10.10;;;;;;5074232;28;20432;-75
2021/04/21 09:08:38;;;;;;;27.80;25.37;;;17.20;9.40;;;;;;5075313;28;20419;-73
2021/04/21 09:11:04;;;;;;;31.97;29.37;;;17.20;10.20;;;;;;5073662;28;20460;-73
2021/04/21 09:13:29;;;;;;;28.60;26.73;;;17.00;11.00;;;;;;5072554;28;20439;-73
2021/04/21 09:15:57;;;;;;;28.90;27.00;;;16.90;10.80;;;;;;5073817;28;20579;-73
2021/04/21 09:18:31;;;;;;;28.07;26.00;;;17.00;11.40;;;;;;5070880;28;20265;-73
2021/04/21 09:20:58;;;;;;;28.70;26.00;;;17.10;10.10;;;;;;5070022;28;20960;-73
2021/04/21 09:23:24;;;;;;;28.97;26.93;;;17.10;10.50;;;;;;5069182;28;20519;-73
2021/04/21 09:25:54;;;;;;;24.73;23.20;;;17.00;11.10;;;;;;5072427;28;20872;-73
2021/04/21 09:28:23;;;;;;;25.37;23.70;;;17.20;10.50;;;;;;5072391;28;20176;-73
2021/04/21 09:30:58;;;;;;;26.30;24.10;;;17.20;9.30;;;;;;5069974;28;20519;-73
2021/04/21 09:33:28;;;;;;;27.87;25.47;;;17.00;9.00;;;;;;5070338;28;20701;-73
2021/04/21 09:35:54;;;;;;;26.47;24.47;;;17.00;9.80;;;;;;5070783;28;20494;-73
2021/04/21 09:38:27;;;;;;;25.50;23.80;;;17.00;9.50;;;;;;5070448;28;20905;-73
2021/04/21 09:40:58;;;;;;;26.50;24.70;;;17.00;11.30;;;;;;5070182;28;20459;-73
2021/04/21 09:43:34;;;;;;;26.33;24.33;;;17.10;10.10;;;;;;5071511;28;20506;-73
2021/04/21 09:46:04;;;;;;;27.40;25.53;;;17.10;10.10;;;;;;5071061;28;20427;-73
2021/04/21 09:48:32;;;;;;;24.97;23.13;;;17.20;9.30;;;;;;5074714;28;20412;-73
2021/04/21 09:51:08;;;;;;;26.63;24.93;;;17.30;8.80;;;;;;5072538;28;20416;-73
2021/04/21 09:53:43;;;;;;;26.63;24.77;;;17.50;9.10;;;;;;5070793;28;20932;-73
2021/04/21 09:56:23;;;;;;;28.30;26.27;;;17.70;7.40;;;;;;5071869;28;20514;-74
2021/04/21 09:58:54;;;;;;;26.87;24.93;;;17.50;7.00;;;;;;5070553;28;20419;-73
2021/04/21 10:01:20;;;;;;;26.73;25.03;;;17.60;7.40;;;;;;5067726;28;21093;-73
2021/04/21 10:03:47;;;;;;;25.07;23.47;;;17.80;8.40;;;;;;5053902;28;20512;-73
2021/04/21 10:06:20;;;;;;;26.57;24.37;;;17.80;6.60;;;;;;5053905;28;20228;-72
2021/04/21 10:08:46;;;;;;;25.90;24.13;;;17.90;6.80;;;;;;5065842;28;20439;-72
2021/04/21 10:11:12;;;;;;;25.43;23.80;;;17.90;6.10;;;;;;5071010;28;20436;-74
2021/04/21 10:13:43;;;;;;;25.93;23.83;;;17.80;7.30;;;;;;5070739;28;20174;-72
2021/04/21 10:16:09;;;;;;;22.03;20.43;;;17.70;6.00;;;;;;5070707;28;20244;-72
2021/04/21 10:18:36;;;;;;;23.90;22.50;;;17.60;5.20;;;;;;5071600;28;20416;-72
2021/04/21 10:21:03;;;;;;;23.20;21.77;;;17.70;5.80;;;;;;5072401;28;20459;-72
2021/04/21 10:23:30;;;;;;;21.00;19.87;;;17.80;6.10;;;;;;5064641;28;20444;-72
2021/04/21 10:26:04;;;;;;;22.83;21.47;;;17.90;4.10;;;;;;5069958;28;20412;-72
2021/04/21 10:28:30;;;;;;;22.53;21.33;;;17.90;3.40;;;;;;5069770;28;20513;-72
2021/04/21 10:30:56;;;;;;;25.10;23.20;;;17.80;4.60;;;;;;5068943;28;20779;-72
2021/04/21 10:33:23;;;;;;;22.73;21.53;;;17.70;5.20;;;;;;5091882;22;20492;-72
2021/04/21 10:35:49;;;;;;;24.13;22.90;;;17.80;6.10;;;;;;5079450;28;20470;-75
2021/04/21 10:38:16;;;;;;;22.20;21.07;;;18.00;6.20;;;;;;5072188;28;20424;-74
2021/04/21 10:40:42;;;;;;;22.53;20.77;;;18.10;4.60;;;;;;5069705;28;20178;-73
2021/04/21 10:43:08;;;;;;;23.50;22.20;;;17.80;4.80;;;;;;5085862;28;20512;-75
2021/04/21 10:45:47;;;;;;;21.43;20.23;;;17.80;5.20;;;;;;5084509;28;20522;-72
2021/04/21 10:48:38;;;;;;;22.33;21.23;;;17.90;5.60;;;;;;5084346;28;20249;-72
2021/04/21 10:51:40;;;;;;;24.37;22.93;;;18.00;5.20;;;;;;5082696;28;20417;-74
2021/04/21 10:54:08;;;;;;;23.40;22.10;;;18.00;4.40;;;;;;5084189;28;20421;-72
2021/04/21 10:56:35;;;;;;;22.37;20.63;;;18.00;5.40;;;;;;5084349;28;20416;-73
2021/04/21 10:59:02;;;;;;;23.97;22.20;;;18.00;5.50;;;;;;5081794;28;20489;-72
2021/04/21 11:01:33;;;;;;;23.50;22.00;;;17.90;5.20;;;;;;5082277;28;20471;-75
2021/04/21 11:04:01;;;;;;;23.60;22.20;;;18.00;4.70;;;;;;5081496;28;20589;-74
2021/04/21 11:06:38;;;;;;;24.40;22.77;;;18.00;3.70;;;;;;5082708;28;20427;-72
2021/04/21 11:09:05;;;;;;;23.13;21.80;;;18.00;4.50;;;;;;5082537;28;20436;-74
2021/04/21 11:11:40;;;;;;;22.60;21.20;;;18.10;4.50;;;;;;5083553;28;20432;-72
2021/04/21 11:14:06;;;;;;;23.37;21.97;;;18.30;4.00;;;;;;5069088;28;20427;-74
2021/04/21 11:16:31;;;;;;;23.63;22.10;;;18.40;4.40;;;;;;5073334;28;20423;-72
2021/04/21 11:19:19;;;;;;;22.70;21.50;;;18.60;4.50;;;;;;5074850;28;20425;-72
2021/04/21 11:21:47;;;;;;;22.77;21.67;;;18.50;3.00;;;;;;5082749;28;20218;-72
2021/04/21 11:24:13;;;;;;;22.60;21.40;;;18.50;3.80;;;;;;5063212;28;20413;-74
2021/04/21 11:26:43;;;;;;;22.93;21.70;;;18.40;1.80;;;;;;5080305;28;20432;-73
2021/04/21 11:29:25;;;;;;;21.90;20.40;;;18.50;2.60;;;;;;5080478;28;20189;-72
2021/04/21 11:31:51;;;;;;;21.57;20.53;;;18.60;3.20;;;;;;5080737;28;20459;-73
2021/04/21 11:34:24;;;;;;;20.43;19.43;;;18.80;2.10;;;;;;5080885;28;20416;-74
2021/04/21 11:36:51;;;;;;;20.30;18.97;;;18.90;1.60;;;;;;5080037;28;21062;-74
2021/04/21 11:39:42;;;;;;;20.73;19.60;;;18.80;1.00;;;;;;5081326;28;20416;-74
2021/04/21 11:42:21;;;;;;;20.40;19.40;;;18.70;1.00;;;;;;5082357;28;20479;-74
2021/04/21 11:44:50;;;;;;;20.20;19.10;;;18.60;1.00;;;;;;5081315;28;20503;-73
2021/04/21 11:47:39;;;;;;;19.10;18.10;;;18.70;1.00;;;;;;5080346;28;20420;-75
2021/04/21 11:50:17;;;;;;;21.60;20.50;;;18.70;1.00;;;;;;5078827;28;21024;-74
2021/04/21 11:52:58;;;;;;;19.93;18.80;;;18.70;1.00;;;;;;5080142;28;20451;-73
2021/04/21 11:55:36;;;;;;;22.73;21.67;;;18.60;1.00;;;;;;5081691;28;20428;-76
2021/04/21 11:58:04;;;;;;;22.30;21.17;;;18.70;1.00;;;;;;5080804;28;20408;-72
2021/04/21 12:00:35;;;;;;;22.40;21.07;;;18.70;1.00;;;;;;5075057;28;20436;-74
2021/04/21 12:03:02;;;;;;;21.80;20.10;;;18.70;1.40;;;;;;5082178;28;20474;-75
2021/04/21 12:05:33;;;;;;;19.33;18.50;;;18.80;1.00;;;;;;5080846;28;20416;-73
2021/04/21 12:08:02;;;;;;;20.00;19.10;;;18.80;1.00;;;;;;5082252;28;20459;-72
2021/04/21 12:10:32;;;;;;;19.73;18.77;;;18.70;1.00;;;;;;5090294;28;20480;-72
2021/04/21 12:13:11;;;;;;;21.87;20.67;;;18.80;1.00;;;;;;5088410;28;20439;-74
2021/04/21 12:15:37;;;;;;;20.60;19.67;;;18.80;1.00;;;;;;5085129;28;20424;-71
2021/04/21 12:18:04;;;;;;;20.20;19.20;;;18.80;1.00;;;;;;5059731;28;20429;-73
2021/04/21 12:20:31;;;;;;;20.37;19.03;;;18.70;1.00;;;;;;5048861;28;20209;-74
2021/04/21 12:22:57;;;;;;;19.77;18.57;;;18.60;1.00;;;;;;5049696;28;20460;-72
2021/04/21 12:25:25;;;;;;;20.40;19.40;;;18.50;1.00;;;;;;5053477;28;20453;-72
2021/04/21 12:27:59;;;;;;;20.50;19.30;;;18.40;1.00;;;;;;5057838;28;20913;-74
2021/04/21 12:30:31;;;;;;;19.20;18.40;;;18.40;1.00;;;;;;5053014;28;20440;-74
2021/04/21 12:33:06;;;;;;;19.83;18.83;;;18.50;1.00;;;;;;5069483;28;21081;-74
2021/04/21 12:35:31;;;;;;;19.40;18.60;;;18.80;1.00;;;;;;5070442;28;20465;-72
2021/04/21 12:37:58;;;;;;;19.30;18.30;;;19.10;1.00;;;;;;5070269;28;20446;-75
2021/04/21 12:40:28;;;;;;;20.17;19.20;;;19.20;1.00;;;;;;5070002;28;20625;-74
2021/04/21 12:43:07;;;;;;;20.00;19.10;;;;;;;;;;5052266;28;20487;-76
2021/04/21 12:45:32;;;;;;;20.23;19.30;;;19.70;1.00;;;;;;5052914;28;20486;-75
2021/04/21 12:47:58;;;;;;;19.60;18.80;;;19.70;1.00;;;;;;5053330;28;20424;-72
2021/04/21 12:50:31;;;;;;;19.10;18.20;;;19.70;1.00;;;;;;5052076;28;20690;-74
2021/04/21 12:53:14;;;;;;;18.90;18.10;;;19.60;1.00;;;;;;5054082;28;20214;-75
2021/04/21 12:55:40;;;;;;;20.50;19.40;;;19.60;1.00;;;;;;5071895;28;20422;-73
2021/04/21 12:58:06;;;;;;;20.93;19.73;;;19.80;1.00;;;;;;5078090;28;20885;-72
2021/04/21 13:00:32;;;;;;;19.03;18.23;;;20.00;1.00;;;;;;5080104;28;20421;-74
2021/04/21 13:02:58;;;;;;;19.20;18.33;;;20.30;1.00;;;;;;5073655;28;20470;-71